Time;durP1;ratioP1;P1;durP2;ratioP2;P2;SDS_P1;SDS_P2;PMS_P1;PMS_P2;Temp;Humidity;BMP_temperature;BMP_pressure;BME280_temperature;BME280_humidity;BME280_pressure;Samples;Min_cycle;Max_cycle;Signal;HPM_P1;HPM_P2
2023/08/11 00:00:24;;;;;;;2.45;1.67;;;25.50;49.90;;;;;;5150267;27;46748;-74
2023/08/11 00:02:51;;;;;;;1.63;1.52;;;25.50;50.00;;;;;;5150324;27;45304;-74
2023/08/11 00:05:18;;;;;;;1.50;1.40;;;25.50;50.00;;;;;;5150499;27;45260;-73
2023/08/11 00:07:46;;;;;;;1.65;1.38;;;25.50;50.00;;;;;;5150195;27;45359;-72
2023/08/11 00:10:13;;;;;;;1.58;1.48;;;25.50;50.00;;;;;;5149299;27;45829;-73
2023/08/11 00:12:41;;;;;;;1.75;1.50;;;25.40;50.00;;;;;;5149841;27;45345;-74
2023/08/11 00:15:08;;;;;;;1.45;1.35;;;25.40;50.00;;;;;;5149765;27;45109;-74
2023/08/11 00:17:35;;;;;;;2.78;1.60;;;25.40;50.00;;;;;;5150218;27;45344;-73
2023/08/11 00:20:03;;;;;;;2.47;1.50;;;25.40;50.10;;;;;;5148909;27;46510;-74
2023/08/11 00:22:30;;;;;;;1.70;1.60;;;25.30;50.10;;;;;;5149816;27;45244;-74
2023/08/11 00:24:57;;;;;;;2.35;1.90;;;25.30;50.10;;;;;;5149886;27;45255;-74
2023/08/11 00:27:24;;;;;;;1.77;1.67;;;25.30;50.10;;;;;;5150430;27;45368;-74
2023/08/11 00:29:54;;;;;;;1.70;1.50;;;25.30;50.10;;;;;;5149336;27;46397;-73
2023/08/11 00:32:21;;;;;;;1.98;1.63;;;25.30;50.10;;;;;;5149630;27;45328;-74
2023/08/11 00:34:48;;;;;;;1.77;1.50;;;25.30;50.10;;;;;;5149682;27;45247;-74
2023/08/11 00:37:15;;;;;;;1.70;1.60;;;25.30;50.10;;;;;;5150001;27;45348;-73
2023/08/11 00:39:41;;;;;;;1.45;1.35;;;25.30;50.10;;;;;;5149170;27;47279;-73
2023/08/11 00:42:08;;;;;;;1.70;1.58;;;25.30;50.20;;;;;;5149352;27;45483;-72
2023/08/11 00:44:35;;;;;;;1.45;1.35;;;25.20;50.10;;;;;;5149370;27;45289;-74
2023/08/11 00:47:05;;;;;;;1.73;1.48;;;25.20;50.20;;;;;;5146999;27;45196;-74
2023/08/11 00:49:32;;;;;;;1.65;1.55;;;25.20;50.20;;;;;;5149149;27;45681;-74
2023/08/11 00:51:58;;;;;;;1.67;1.58;;;25.20;50.20;;;;;;5149290;27;45375;-74
2023/08/11 00:54:26;;;;;;;2.17;1.55;;;25.20;50.30;;;;;;5148437;27;45344;-73
2023/08/11 00:56:53;;;;;;;2.42;2.00;;;25.10;50.20;;;;;;5149123;27;45214;-73
2023/08/11 00:59:20;;;;;;;1.77;1.55;;;25.20;50.30;;;;;;5148793;27;46281;-74
2023/08/11 01:01:47;;;;;;;2.00;1.48;;;25.10;50.80;;;;;;5148996;27;45323;-74
2023/08/11 01:04:15;;;;;;;1.70;1.60;;;25.10;50.20;;;;;;5149174;27;45324;-73
2023/08/11 01:06:43;;;;;;;1.70;1.60;;;25.00;50.20;;;;;;5149418;27;45409;-73
2023/08/11 01:09:16;;;;;;;1.48;1.30;;;25.00;50.30;;;;;;5148953;27;45534;-73
2023/08/11 01:11:49;;;;;;;1.70;1.50;;;25.00;50.30;;;;;;5148976;27;45269;-74
2023/08/11 01:14:18;;;;;;;1.92;1.70;;;25.00;50.30;;;;;;5149388;27;45248;-73
2023/08/11 01:16:47;;;;;;;1.60;1.50;;;25.00;50.30;;;;;;5149254;27;45324;-74
2023/08/11 01:19:15;;;;;;;1.60;1.40;;;25.00;50.20;;;;;;5148704;27;45365;-73
2023/08/11 01:21:42;;;;;;;1.63;1.52;;;25.00;50.30;;;;;;5149119;27;45210;-74
2023/08/11 01:24:10;;;;;;;1.60;1.50;;;25.00;50.30;;;;;;5146117;27;45309;-74
2023/08/11 01:26:37;;;;;;;2.70;1.88;;;25.00;50.30;;;;;;5149001;27;45338;-73
2023/08/11 01:29:04;;;;;;;1.67;1.58;;;25.00;50.30;;;;;;5148676;27;46397;-74
2023/08/11 01:31:31;;;;;;;1.88;1.67;;;25.00;50.30;;;;;;5148844;27;45305;-74
2023/08/11 01:33:58;;;;;;;3.08;1.50;;;24.90;50.30;;;;;;5148768;27;45309;-73
2023/08/11 01:36:25;;;;;;;2.45;1.33;;;24.90;50.40;;;;;;5148813;27;45567;-73
2023/08/11 01:38:52;;;;;;;1.70;1.60;;;24.90;50.40;;;;;;5148306;27;47560;-73
2023/08/11 01:41:21;;;;;;;1.60;1.40;;;24.90;50.40;;;;;;5148357;27;45350;-73
2023/08/11 01:43:48;;;;;;;1.30;1.20;;;24.80;50.40;;;;;;5148284;27;45321;-73
2023/08/11 01:46:15;;;;;;;1.45;1.35;;;24.80;50.40;;;;;;5148019;27;45444;-73
2023/08/11 01:48:42;;;;;;;1.60;1.50;;;24.80;51.00;;;;;;5148256;27;46399;-73
2023/08/11 01:51:08;;;;;;;1.90;1.70;;;24.80;50.50;;;;;;5148239;27;45318;-73
2023/08/11 01:53:35;;;;;;;2.65;1.65;;;24.70;50.40;;;;;;5143506;27;45250;-74
2023/08/11 01:56:02;;;;;;;1.67;1.48;;;24.70;50.40;;;;;;5127675;27;45393;-74
2023/08/11 01:58:30;;;;;;;1.70;1.27;;;24.80;50.50;;;;;;5127154;27;45302;-74
2023/08/11 02:00:57;;;;;;;3.60;1.60;;;24.70;50.50;;;;;;5127121;27;45343;-73
2023/08/11 02:03:24;;;;;;;3.03;1.60;;;24.70;50.50;;;;;;5127535;27;45300;-74
2023/08/11 02:05:51;;;;;;;1.70;1.40;;;24.70;50.50;;;;;;5127729;27;45418;-73
2023/08/11 02:08:18;;;;;;;2.17;1.50;;;24.70;50.40;;;;;;5127370;27;45202;-73
2023/08/11 02:10:45;;;;;;;1.70;1.60;;;24.70;50.40;;;;;;5127500;27;45400;-74
2023/08/11 02:13:12;;;;;;;1.40;1.30;;;24.70;50.40;;;;;;5127179;27;45407;-74
2023/08/11 02:15:40;;;;;;;1.30;1.20;;;24.70;50.40;;;;;;5126942;27;45330;-73
2023/08/11 02:18:07;;;;;;;3.45;1.58;;;24.70;50.40;;;;;;5126443;27;45176;-73
2023/08/11 02:20:34;;;;;;;1.60;1.50;;;24.60;50.40;;;;;;5127039;27;45348;-73
2023/08/11 02:23:01;;;;;;;4.10;1.67;;;24.60;50.40;;;;;;5127225;27;45671;-74
2023/08/11 02:25:28;;;;;;;6.68;1.60;;;24.60;50.80;;;;;;5127722;27;45388;-74
2023/08/11 02:27:55;;;;;;;1.92;1.70;;;24.60;50.50;;;;;;5126917;27;46692;-74
2023/08/11 02:30:22;;;;;;;2.05;1.45;;;24.60;50.40;;;;;;5126383;27;45165;-73
2023/08/11 02:32:50;;;;;;;1.92;1.48;;;24.60;50.40;;;;;;5127195;27;45342;-73
2023/08/11 02:35:18;;;;;;;1.63;1.52;;;24.60;50.50;;;;;;5127271;27;45315;-73
2023/08/11 02:37:44;;;;;;;1.80;1.60;;;24.50;50.40;;;;;;5126701;27;48643;-74
2023/08/11 02:40:12;;;;;;;1.67;1.58;;;24.50;50.40;;;;;;5126891;27;45374;-74
2023/08/11 02:42:38;;;;;;;2.13;1.70;;;24.50;50.50;;;;;;5128666;27;45267;-73
2023/08/11 02:45:09;;;;;;;1.60;1.50;;;24.50;50.60;;;;;;5130638;27;45288;-74
2023/08/11 02:47:36;;;;;;;2.42;1.48;;;24.50;50.60;;;;;;5130477;27;45355;-74
2023/08/11 02:50:04;;;;;;;2.45;1.40;;;24.50;50.70;;;;;;5130331;27;45323;-73
2023/08/11 02:52:31;;;;;;;1.48;1.38;;;24.40;50.60;;;;;;5130471;27;45269;-74
2023/08/11 02:54:57;;;;;;;1.55;1.45;;;24.50;50.60;;;;;;5146296;27;45229;-74
2023/08/11 02:57:24;;;;;;;3.63;1.50;;;24.40;50.60;;;;;;5150898;27;46731;-74
2023/08/11 02:59:51;;;;;;;1.50;1.40;;;24.40;50.70;;;;;;5150926;27;45285;-73
2023/08/11 03:02:19;;;;;;;1.30;1.20;;;24.40;50.70;;;;;;5151265;27;45309;-73
2023/08/11 03:04:47;;;;;;;1.90;1.77;;;24.30;50.60;;;;;;5151406;27;45313;-73
2023/08/11 03:07:16;;;;;;;3.80;1.60;;;24.30;50.70;;;;;;5150856;27;46841;-74
2023/08/11 03:09:43;;;;;;;1.35;1.25;;;24.30;50.70;;;;;;5150801;27;45237;-74
2023/08/11 03:12:10;;;;;;;1.50;1.40;;;24.30;50.60;;;;;;5151043;27;45232;-73
2023/08/11 03:14:37;;;;;;;1.55;1.45;;;24.20;50.60;;;;;;5150845;27;45644;-73
2023/08/11 03:17:05;;;;;;;1.63;1.40;;;24.30;50.70;;;;;;5149865;27;45384;-73
2023/08/11 03:19:32;;;;;;;4.07;1.70;;;24.20;50.80;;;;;;5150688;27;45194;-72
2023/08/11 03:21:59;;;;;;;1.40;1.30;;;24.20;50.80;;;;;;5150753;27;45188;-73
2023/08/11 03:24:27;;;;;;;1.38;1.17;;;24.20;50.90;;;;;;5150901;27;45326;-72
2023/08/11 03:26:54;;;;;;;1.80;1.60;;;24.20;50.90;;;;;;5151467;27;46699;-73
2023/08/11 03:29:21;;;;;;;2.15;1.77;;;24.10;50.90;;;;;;5150471;27;45436;-73
2023/08/11 03:31:48;;;;;;;1.55;1.45;;;24.10;50.90;;;;;;5150065;27;45206;-73
2023/08/11 03:34:14;;;;;;;1.90;1.70;;;24.10;50.90;;;;;;5150637;27;45114;-73
2023/08/11 03:36:43;;;;;;;2.10;1.63;;;24.10;50.90;;;;;;5150283;27;46407;-73
2023/08/11 03:39:09;;;;;;;1.63;1.52;;;24.10;50.90;;;;;;5150301;27;45219;-73
2023/08/11 03:41:38;;;;;;;2.78;1.95;;;24.10;50.90;;;;;;5150554;27;45452;-73
2023/08/11 03:44:05;;;;;;;1.63;1.52;;;24.10;50.90;;;;;;5150500;27;45265;-73
2023/08/11 03:46:32;;;;;;;1.75;1.65;;;24.10;50.80;;;;;;5149918;27;45312;-73
2023/08/11 03:48:59;;;;;;;1.30;1.20;;;24.10;50.90;;;;;;5150332;27;45418;-73
2023/08/11 03:51:26;;;;;;;1.70;1.58;;;24.10;50.90;;;;;;5150442;27;45307;-73
2023/08/11 03:53:53;;;;;;;1.83;1.50;;;24.10;50.90;;;;;;5148984;27;45448;-73
2023/08/11 03:56:20;;;;;;;1.58;1.48;;;24.10;50.90;;;;;;5150125;27;45238;-73
2023/08/11 03:58:48;;;;;;;1.50;1.40;;;24.10;50.90;;;;;;5150426;27;45321;-73
2023/08/11 04:01:14;;;;;;;1.90;1.70;;;24.00;50.90;;;;;;5149632;27;45404;-73
2023/08/11 04:03:42;;;;;;;1.98;1.45;;;24.00;50.90;;;;;;5150041;27;45496;-73
2023/08/11 04:06:09;;;;;;;2.90;1.73;;;24.00;50.90;;;;;;5149880;27;45448;-73
2023/08/11 04:08:36;;;;;;;1.85;1.67;;;24.00;50.80;;;;;;5149940;27;45282;-73
2023/08/11 04:11:03;;;;;;;1.50;1.40;;;24.00;50.90;;;;;;5150117;27;45445;-73
2023/08/11 04:13:29;;;;;;;2.35;1.30;;;24.00;50.90;;;;;;5150061;27;45476;-73
2023/08/11 04:15:59;;;;;;;1.75;1.48;;;24.00;50.80;;;;;;5149767;27;45368;-73
2023/08/11 04:18:26;;;;;;;1.65;1.52;;;23.90;50.90;;;;;;5149818;27;45228;-73
2023/08/11 04:20:52;;;;;;;1.60;1.50;;;24.00;51.00;;;;;;5149815;27;45314;-73
2023/08/11 04:23:19;;;;;;;1.50;1.40;;;23.90;50.90;;;;;;5150004;27;45332;-73
2023/08/11 04:25:46;;;;;;;1.77;1.67;;;23.90;50.90;;;;;;5149579;27;46737;-73
2023/08/11 04:28:13;;;;;;;1.58;1.33;;;23.90;50.90;;;;;;5149513;27;45243;-73
2023/08/11 04:30:40;;;;;;;1.48;1.38;;;23.90;50.90;;;;;;5149632;27;45229;-73
2023/08/11 04:33:08;;;;;;;1.40;1.30;;;23.90;51.00;;;;;;5149877;27;45326;-74
2023/08/11 04:35:35;;;;;;;2.47;1.45;;;23.90;50.90;;;;;;5149222;27;45301;-73
2023/08/11 04:38:02;;;;;;;1.83;1.48;;;23.80;50.90;;;;;;5149579;27;45374;-73
2023/08/11 04:40:29;;;;;;;1.50;1.40;;;23.80;50.90;;;;;;5149454;27;45243;-73
2023/08/11 04:42:55;;;;;;;1.40;1.30;;;23.80;50.90;;;;;;5149600;27;45305;-74
2023/08/11 04:45:22;;;;;;;1.67;1.58;;;23.80;50.90;;;;;;5148538;27;45513;-73
2023/08/11 04:47:49;;;;;;;1.58;1.45;;;23.80;50.90;;;;;;5148807;27;45430;-73
2023/08/11 04:50:17;;;;;;;1.70;1.35;;;23.80;50.90;;;;;;5149674;27;45389;-73
2023/08/11 04:52:44;;;;;;;1.52;1.42;;;23.80;50.80;;;;;;5149386;27;45384;-74
2023/08/11 04:55:12;;;;;;;1.40;1.30;;;23.80;51.00;;;;;;5148820;27;46333;-74
2023/08/11 04:57:39;;;;;;;1.67;1.58;;;23.70;50.90;;;;;;5148981;27;45317;-74
2023/08/11 05:00:13;;;;;;;1.35;1.25;;;23.80;50.90;;;;;;5149259;27;45319;-73
2023/08/11 05:02:41;;;;;;;1.40;1.30;;;23.80;50.90;;;;;;5149823;27;45452;-74
2023/08/11 05:05:09;;;;;;;1.63;1.52;;;23.80;51.00;;;;;;5148796;27;47120;-73
2023/08/11 05:07:37;;;;;;;1.30;1.20;;;23.70;50.90;;;;;;5148952;27;45201;-73
2023/08/11 05:10:04;;;;;;;1.70;1.50;;;23.70;50.90;;;;;;5149029;27;45467;-74
2023/08/11 05:12:31;;;;;;;1.50;1.40;;;23.70;50.90;;;;;;5149106;27;45319;-73
2023/08/11 05:14:58;;;;;;;1.50;1.33;;;23.70;50.90;;;;;;5148598;27;46750;-73
2023/08/11 05:17:25;;;;;;;2.33;1.60;;;23.70;50.90;;;;;;5148774;27;45325;-73
2023/08/11 05:19:51;;;;;;;1.50;1.40;;;23.70;50.90;;;;;;5148876;27;45275;-73
2023/08/11 05:22:18;;;;;;;1.60;1.50;;;23.70;50.90;;;;;;5149212;27;45382;-73
2023/08/11 05:24:46;;;;;;;1.70;1.60;;;23.70;50.90;;;;;;5148423;27;46817;-72
2023/08/11 05:27:14;;;;;;;1.63;1.52;;;23.70;50.90;;;;;;5148577;27;45326;-73
2023/08/11 05:29:45;;;;;;;1.42;1.33;;;23.70;50.90;;;;;;5148809;27;45318;-73
2023/08/11 05:32:12;;;;;;;2.03;1.77;;;23.70;50.90;;;;;;5148863;27;45475;-73
2023/08/11 05:34:38;;;;;;;2.20;1.48;;;23.70;50.80;;;;;;5147636;27;46394;-73
2023/08/11 05:37:05;;;;;;;1.33;1.23;;;23.70;50.90;;;;;;5148501;27;45280;-73
2023/08/11 05:39:33;;;;;;;1.33;1.23;;;23.70;50.80;;;;;;5148681;27;45148;-73
2023/08/11 05:42:01;;;;;;;1.70;1.60;;;23.60;50.80;;;;;;5148638;27;45555;-73
2023/08/11 05:44:28;;;;;;;1.60;1.50;;;23.70;50.90;;;;;;5148322;27;46293;-74
2023/08/11 05:46:54;;;;;;;1.60;1.50;;;23.70;50.80;;;;;;5148510;27;45332;-73
2023/08/11 05:49:21;;;;;;;1.77;1.42;;;23.70;50.80;;;;;;5148450;27;45354;-73
2023/08/11 05:51:48;;;;;;;1.73;1.63;;;23.60;50.70;;;;;;5148655;27;45263;-73
2023/08/11 05:54:15;;;;;;;1.77;1.67;;;23.60;50.80;;;;;;5147971;27;45519;-72
2023/08/11 05:56:42;;;;;;;1.55;1.45;;;23.70;50.90;;;;;;5148312;27;45437;-73
2023/08/11 05:59:10;;;;;;;1.48;1.38;;;23.60;50.80;;;;;;5148319;27;45311;-73
2023/08/11 06:01:37;;;;;;;1.50;1.40;;;23.70;50.90;;;;;;5148506;27;45245;-73
2023/08/11 06:04:04;;;;;;;1.50;1.40;;;23.60;50.80;;;;;;5148156;27;47369;-73
2023/08/11 06:06:31;;;;;;;1.52;1.33;;;23.60;50.80;;;;;;5148206;27;45349;-73
2023/08/11 06:08:58;;;;;;;1.98;1.75;;;23.60;50.80;;;;;;5148272;27;45363;-73
2023/08/11 06:11:25;;;;;;;1.50;1.30;;;23.60;50.80;;;;;;5148516;27;45378;-73
2023/08/11 06:13:52;;;;;;;1.77;1.67;;;23.60;50.80;;;;;;5148272;27;45267;-73
2023/08/11 06:16:20;;;;;;;1.50;1.40;;;23.60;50.80;;;;;;5148065;27;45456;-73
2023/08/11 06:18:47;;;;;;;1.42;1.33;;;23.70;50.80;;;;;;5150700;27;45302;-73
2023/08/11 06:21:14;;;;;;;1.50;1.40;;;23.60;50.80;;;;;;5151879;27;45398;-73
2023/08/11 06:23:41;;;;;;;1.50;1.40;;;23.60;51.40;;;;;;5151484;27;46779;-73
2023/08/11 06:26:08;;;;;;;1.58;1.48;;;23.60;50.80;;;;;;5151562;27;45363;-72
2023/08/11 06:28:35;;;;;;;1.27;1.17;;;23.60;50.90;;;;;;5151671;27;45341;-74
2023/08/11 06:31:02;;;;;;;1.63;1.52;;;23.70;50.90;;;;;;5151624;27;45312;-74
2023/08/11 06:33:31;;;;;;;1.60;1.50;;;23.60;50.80;;;;;;5151287;27;45435;-73
2023/08/11 06:35:57;;;;;;;3.15;1.63;;;23.70;50.90;;;;;;5151347;27;45187;-73
2023/08/11 06:38:24;;;;;;;1.40;1.30;;;23.60;50.80;;;;;;5151470;27;45371;-73
2023/08/11 06:40:51;;;;;;;3.28;1.35;;;23.70;50.80;;;;;;5151746;27;45551;-72
2023/08/11 06:43:18;;;;;;;1.60;1.40;;;23.60;50.70;;;;;;5151182;27;46508;-73
2023/08/11 06:45:45;;;;;;;2.58;1.80;;;23.70;50.80;;;;;;5151235;27;45160;-72
2023/08/11 06:48:12;;;;;;;2.08;1.60;;;23.70;50.80;;;;;;5151294;27;45298;-73
2023/08/11 06:50:40;;;;;;;1.95;1.75;;;23.70;50.80;;;;;;5151496;27;45273;-72
2023/08/11 06:53:07;;;;;;;1.70;1.60;;;23.70;50.80;;;;;;5150766;27;46744;-72
2023/08/11 06:55:34;;;;;;;1.77;1.45;;;23.70;50.80;;;;;;5130452;27;45498;-73
2023/08/11 06:58:00;;;;;;;1.20;1.20;;;23.70;50.70;;;;;;5130077;27;45184;-72
2023/08/11 07:00:27;;;;;;;1.35;1.25;;;23.70;50.70;;;;;;5130304;27;45478;-73
2023/08/11 07:02:54;;;;;;;1.60;1.50;;;23.80;50.80;;;;;;5129192;27;46392;-72
2023/08/11 07:05:21;;;;;;;2.17;1.27;;;23.80;50.70;;;;;;5130064;27;45319;-72
2023/08/11 07:07:49;;;;;;;2.15;1.05;;;23.80;50.80;;;;;;5130171;27;45362;-72
2023/08/11 07:10:16;;;;;;;2.47;1.40;;;23.80;50.70;;;;;;5130404;27;45406;-72
2023/08/11 07:12:43;;;;;;;1.50;1.40;;;23.80;50.70;;;;;;5130036;27;45485;-73
2023/08/11 07:15:10;;;;;;;2.92;1.33;;;23.80;50.70;;;;;;5129810;27;45470;-72
2023/08/11 07:17:37;;;;;;;2.55;1.42;;;23.90;50.70;;;;;;5129868;27;45386;-72
2023/08/11 07:20:05;;;;;;;2.35;1.48;;;23.90;50.50;;;;;;5130248;27;45469;-73
2023/08/11 07:22:32;;;;;;;1.65;1.55;;;23.90;50.50;;;;;;5129604;27;45309;-73
2023/08/11 07:25:00;;;;;;;1.65;1.38;;;23.90;50.50;;;;;;5129769;27;45306;-72
2023/08/11 07:27:27;;;;;;;1.38;1.20;;;24.00;50.50;;;;;;5129849;27;45424;-72
2023/08/11 07:29:54;;;;;;;1.55;1.42;;;24.00;50.70;;;;;;5129912;27;45420;-72
2023/08/11 07:32:21;;;;;;;1.52;1.40;;;24.00;50.60;;;;;;5129811;27;46694;-73
2023/08/11 07:34:47;;;;;;;1.73;1.55;;;24.00;50.60;;;;;;5129599;27;45179;-73
2023/08/11 07:37:14;;;;;;;1.30;1.20;;;24.00;50.50;;;;;;5129861;27;45184;-72
2023/08/11 07:39:42;;;;;;;1.40;1.30;;;24.00;50.50;;;;;;5129871;27;45456;-73
2023/08/11 07:42:10;;;;;;;2.50;1.45;;;24.10;50.40;;;;;;5129387;27;45372;-73
2023/08/11 07:44:37;;;;;;;1.40;1.30;;;24.10;50.30;;;;;;5129340;27;45390;-73
2023/08/11 07:47:04;;;;;;;2.50;1.70;;;24.10;50.30;;;;;;5128818;27;45260;-72
2023/08/11 07:49:31;;;;;;;1.65;1.40;;;24.10;50.30;;;;;;5129485;27;45353;-72
2023/08/11 07:51:58;;;;;;;1.70;1.60;;;24.10;50.30;;;;;;5129315;27;45395;-73
2023/08/11 07:54:25;;;;;;;1.58;1.45;;;24.10;50.30;;;;;;5140212;27;45362;-72
2023/08/11 07:56:52;;;;;;;1.60;1.50;;;24.20;50.30;;;;;;5150320;27;45325;-72
2023/08/11 07:59:20;;;;;;;1.50;1.40;;;24.20;50.30;;;;;;5150556;27;45453;-72
2023/08/11 08:01:51;;;;;;;1.40;1.30;;;24.20;50.30;;;;;;5149895;27;45503;-72
2023/08/11 08:04:18;;;;;;;1.83;1.55;;;24.20;50.20;;;;;;5149953;27;45325;-72
2023/08/11 08:06:46;;;;;;;1.23;1.13;;;24.20;50.20;;;;;;5150022;27;45531;-72
2023/08/11 08:09:14;;;;;;;1.50;1.40;;;24.30;50.20;;;;;;5150190;27;45401;-73
2023/08/11 08:11:42;;;;;;;1.73;1.63;;;24.30;50.20;;;;;;5149779;27;45449;-73
2023/08/11 08:14:09;;;;;;;1.40;1.30;;;24.30;50.20;;;;;;5149730;27;45323;-72
2023/08/11 08:16:37;;;;;;;1.70;1.30;;;24.40;50.20;;;;;;5149860;27;45360;-72
2023/08/11 08:19:05;;;;;;;2.47;1.60;;;24.40;50.20;;;;;;5149997;27;45411;-72
2023/08/11 08:21:32;;;;;;;2.22;1.63;;;24.40;50.20;;;;;;5149526;27;45268;-72
2023/08/11 08:23:59;;;;;;;1.73;1.45;;;24.40;50.80;;;;;;5149489;27;45264;-71
2023/08/11 08:26:26;;;;;;;1.45;1.35;;;24.50;50.30;;;;;;5149721;27;45465;-74
2023/08/11 08:28:53;;;;;;;1.27;1.17;;;24.50;50.20;;;;;;5149997;27;45434;-74
2023/08/11 08:31:20;;;;;;;2.10;1.60;;;24.50;50.10;;;;;;5149752;27;46421;-73
2023/08/11 08:33:48;;;;;;;1.50;1.40;;;24.50;50.20;;;;;;5148913;27;45294;-72
2023/08/11 08:36:15;;;;;;;1.48;1.38;;;24.60;50.10;;;;;;5149501;27;45318;-73
2023/08/11 08:38:41;;;;;;;1.42;1.30;;;24.60;50.10;;;;;;5147193;27;45460;-73
2023/08/11 08:41:09;;;;;;;1.60;1.50;;;24.60;50.10;;;;;;5148695;27;45372;-73
2023/08/11 08:43:36;;;;;;;1.77;1.30;;;24.60;50.00;;;;;;5149435;27;45453;-73
2023/08/11 08:46:03;;;;;;;1.50;1.40;;;24.70;50.60;;;;;;5150023;27;45333;-73
2023/08/11 08:48:33;;;;;;;1.20;1.20;;;24.70;50.00;;;;;;5149857;27;45358;-72
2023/08/11 08:51:01;;;;;;;1.60;1.50;;;24.70;50.00;;;;;;5149188;27;45296;-73
2023/08/11 08:53:28;;;;;;;3.03;1.40;;;24.80;49.90;;;;;;5149128;27;45279;-73
2023/08/11 08:55:55;;;;;;;1.75;1.40;;;24.80;49.90;;;;;;5149595;27;45325;-73
2023/08/11 08:58:22;;;;;;;1.48;1.38;;;24.80;50.00;;;;;;5149497;27;45514;-73
2023/08/11 09:00:50;;;;;;;1.40;1.30;;;24.90;50.00;;;;;;5149255;27;45386;-73
2023/08/11 09:03:17;;;;;;;1.52;1.38;;;24.90;49.90;;;;;;5148968;27;45321;-73
2023/08/11 09:05:44;;;;;;;1.63;1.52;;;24.90;49.90;;;;;;5149157;27;45425;-74
2023/08/11 09:08:12;;;;;;;1.50;1.40;;;24.90;49.80;;;;;;5149648;27;45286;-73
2023/08/11 09:10:39;;;;;;;1.40;1.30;;;25.00;49.80;;;;;;5148902;27;46664;-73
2023/08/11 09:13:06;;;;;;;1.60;1.40;;;25.00;49.80;;;;;;5148841;27;45317;-74
2023/08/11 09:15:33;;;;;;;2.15;1.30;;;25.00;49.60;;;;;;5149497;27;45228;-73
2023/08/11 09:18:00;;;;;;;1.50;1.40;;;25.10;49.70;;;;;;5149027;27;45362;-72
2023/08/11 09:20:27;;;;;;;1.63;1.52;;;25.10;49.70;;;;;;5147925;27;47349;-73
2023/08/11 09:22:54;;;;;;;1.27;1.20;;;25.10;49.60;;;;;;5148661;27;45347;-73
2023/08/11 09:25:22;;;;;;;1.30;1.20;;;25.20;49.70;;;;;;5148878;27;45477;-74
2023/08/11 09:27:50;;;;;;;1.30;1.20;;;25.20;49.80;;;;;;5149058;27;45227;-73
2023/08/11 09:30:17;;;;;;;1.25;1.10;;;25.20;50.10;;;;;;5148603;27;46484;-73
2023/08/11 09:32:48;;;;;;;1.80;1.55;;;25.30;49.40;;;;;;5148581;27;45299;-73
2023/08/11 09:35:14;;;;;;;1.30;1.20;;;25.30;49.30;;;;;;5148285;27;45295;-74
2023/08/11 09:37:43;;;;;;;1.48;1.38;;;25.30;49.30;;;;;;5148981;27;45393;-73
2023/08/11 09:40:11;;;;;;;1.60;1.50;;;25.30;49.20;;;;;;5148716;27;46389;-74
2023/08/11 09:42:41;;;;;;;1.45;1.35;;;25.40;49.40;;;;;;5149468;27;45264;-73
2023/08/11 09:45:09;;;;;;;1.95;1.55;;;25.40;49.20;;;;;;5150226;27;45365;-72
2023/08/11 09:47:36;;;;;;;1.55;1.45;;;25.50;49.10;;;;;;5150507;27;45339;-73
2023/08/11 09:50:03;;;;;;;1.60;1.45;;;25.50;49.30;;;;;;5149881;27;46975;-73
2023/08/11 09:52:30;;;;;;;2.33;1.50;;;25.50;49.20;;;;;;5151037;27;45294;-73
2023/08/11 09:54:57;;;;;;;1.20;1.10;;;25.50;49.20;;;;;;5153052;27;45605;-72
2023/08/11 09:57:24;;;;;;;1.73;1.58;;;25.60;49.20;;;;;;5152272;27;45382;-73
2023/08/11 09:59:52;;;;;;;1.20;1.10;;;25.60;49.20;;;;;;5151837;27;46728;-73
2023/08/11 10:02:21;;;;;;;1.65;1.42;;;25.60;49.20;;;;;;5151909;27;45448;-73
2023/08/11 10:04:56;;;;;;;1.48;1.38;;;25.60;49.20;;;;;;5152171;27;45322;-75
2023/08/11 10:07:23;;;;;;;2.20;1.45;;;25.70;49.20;;;;;;5152487;27;45561;-73
2023/08/11 10:09:50;;;;;;;1.40;1.30;;;25.70;49.10;;;;;;5151064;27;45308;-73
2023/08/11 10:12:17;;;;;;;2.58;1.60;;;25.80;49.20;;;;;;5151654;27;45277;-74
2023/08/11 10:14:43;;;;;;;1.40;1.30;;;25.80;49.00;;;;;;5151910;27;45510;-73
2023/08/11 10:17:12;;;;;;;1.60;1.50;;;25.80;49.10;;;;;;5151922;27;45518;-72
2023/08/11 10:19:39;;;;;;;3.72;1.80;;;25.90;49.40;;;;;;5151546;27;45424;-72
2023/08/11 10:22:06;;;;;;;2.17;1.83;;;26.00;49.50;;;;;;5144786;27;45491;-73
2023/08/11 10:24:36;;;;;;;2.80;1.88;;;26.00;49.60;;;;;;5130766;27;45685;-73
2023/08/11 10:27:03;;;;;;;2.53;2.05;;;26.10;50.00;;;;;;5130970;27;45868;-73
2023/08/11 10:29:30;;;;;;;2.38;2.00;;;26.20;50.30;;;;;;5130482;27;45407;-73
2023/08/11 10:31:58;;;;;;;2.50;2.28;;;26.20;50.30;;;;;;5130841;27;45388;-73
2023/08/11 10:34:26;;;;;;;3.17;2.33;;;26.30;50.20;;;;;;5130592;27;45326;-73
2023/08/11 10:36:54;;;;;;;3.83;2.20;;;26.40;50.10;;;;;;5130849;27;45350;-72
2023/08/11 10:39:21;;;;;;;3.38;2.20;;;26.40;50.20;;;;;;5131202;27;45469;-72
2023/08/11 10:41:48;;;;;;;2.67;2.30;;;26.50;50.10;;;;;;5130450;27;45260;-75
2023/08/11 10:44:17;;;;;;;2.95;2.60;;;26.50;49.90;;;;;;5130620;27;45228;-72
2023/08/11 10:46:44;;;;;;;2.53;2.33;;;26.60;49.90;;;;;;5130588;27;45407;-73
2023/08/11 10:49:21;;;;;;;4.28;2.20;;;26.70;50.00;;;;;;5130156;27;45720;-73
2023/08/11 10:51:49;;;;;;;3.40;2.40;;;26.70;49.70;;;;;;5129752;27;45233;-72
2023/08/11 10:54:19;;;;;;;2.65;2.30;;;26.80;49.80;;;;;;5139644;27;45504;-73
2023/08/11 10:56:46;;;;;;;5.90;2.55;;;26.80;49.80;;;;;;5151348;27;45430;-72
2023/08/11 10:59:14;;;;;;;3.45;2.10;;;26.90;49.80;;;;;;5150221;27;46622;-71
2023/08/11 11:01:42;;;;;;;2.55;2.35;;;27.00;49.90;;;;;;5150359;27;45281;-73
2023/08/11 11:04:11;;;;;;;3.63;2.60;;;27.10;49.70;;;;;;5150459;27;45491;-72
2023/08/11 11:06:38;;;;;;;2.67;2.47;;;27.20;49.90;;;;;;5151309;27;45584;-72
2023/08/11 11:09:06;;;;;;;3.85;2.28;;;27.20;49.60;;;;;;5150732;27;49119;-73
2023/08/11 11:11:33;;;;;;;7.53;2.60;;;27.30;49.40;;;;;;5150771;27;45377;-72
2023/08/11 11:14:00;;;;;;;4.35;2.30;;;27.40;49.40;;;;;;5150846;27;45373;-71
2023/08/11 11:16:27;;;;;;;9.75;2.60;;;27.50;49.80;;;;;;5151051;27;45289;-71
2023/08/11 11:18:54;;;;;;;7.40;2.55;;;27.60;49.20;;;;;;5150723;27;47747;-72
2023/08/11 11:21:21;;;;;;;4.63;2.92;;;27.70;49.20;;;;;;5150565;27;45285;-71
2023/08/11 11:23:48;;;;;;;8.00;2.80;;;27.80;49.10;;;;;;5150475;27;45252;-72
2023/08/11 11:26:21;;;;;;;4.03;2.55;;;27.90;49.10;;;;;;5150815;27;45364;-72
2023/08/11 11:28:48;;;;;;;8.55;2.72;;;28.00;49.10;;;;;;5150179;27;46374;-72
2023/08/11 11:31:15;;;;;;;5.63;2.65;;;28.10;48.90;;;;;;5150479;27;45312;-71
2023/08/11 11:33:42;;;;;;;3.00;2.55;;;28.10;48.70;;;;;;5150153;27;45354;-71
2023/08/11 11:36:09;;;;;;;5.93;2.50;;;28.20;48.40;;;;;;5150596;27;45355;-71
2023/08/11 11:38:36;;;;;;;3.70;2.40;;;28.30;48.20;;;;;;5150151;27;45275;-71
2023/08/11 11:41:03;;;;;;;4.30;2.80;;;28.40;48.00;;;;;;5150442;27;45337;-71
2023/08/11 11:43:31;;;;;;;5.47;3.08;;;28.50;48.10;;;;;;5150339;27;45380;-74
2023/08/11 11:45:58;;;;;;;4.70;2.53;;;28.60;48.30;;;;;;5150182;27;45369;-75
2023/08/11 11:48:24;;;;;;;4.93;2.55;;;28.70;48.10;;;;;;5149637;27;45264;-73
2023/08/11 11:50:51;;;;;;;3.70;2.85;;;28.70;47.90;;;;;;5150334;27;45257;-73
2023/08/11 11:53:19;;;;;;;3.10;2.42;;;28.80;47.70;;;;;;5150082;27;45316;-74
2023/08/11 11:55:46;;;;;;;4.57;2.38;;;28.80;47.70;;;;;;5150217;27;45379;-70
2023/08/11 11:58:14;;;;;;;8.73;2.20;;;28.80;47.60;;;;;;5149747;27;45360;-70
2023/08/11 12:00:42;;;;;;;3.65;2.30;;;28.90;47.20;;;;;;5149637;27;45212;-70
2023/08/11 12:03:10;;;;;;;3.17;2.20;;;29.00;46.30;;;;;;5149861;27;45262;-71
2023/08/11 12:05:37;;;;;;;2.08;1.95;;;29.10;46.50;;;;;;5150060;27;45542;-70
2023/08/11 12:08:18;;;;;;;4.45;2.50;;;29.20;46.30;;;;;;5149755;27;46835;-71
2023/08/11 12:10:46;;;;;;;2.55;2.35;;;29.30;46.00;;;;;;5149656;27;45323;-70
2023/08/11 12:13:13;;;;;;;3.55;2.30;;;29.30;46.20;;;;;;5149768;27;45366;-71
2023/08/11 12:15:41;;;;;;;3.65;2.30;;;29.30;46.20;;;;;;5148522;27;45331;-70
2023/08/11 12:18:08;;;;;;;3.22;2.08;;;29.40;46.50;;;;;;5149447;27;45265;-70
2023/08/11 12:20:36;;;;;;;3.08;2.17;;;29.50;46.50;;;;;;5149316;27;45378;-70
2023/08/11 12:23:03;;;;;;;4.25;2.38;;;29.50;46.20;;;;;;5149180;27;45301;-70
2023/08/11 12:25:30;;;;;;;2.30;2.10;;;29.70;46.30;;;;;;5149722;27;45272;-71
2023/08/11 12:27:57;;;;;;;3.08;2.03;;;29.80;46.20;;;;;;5149232;27;45455;-72
2023/08/11 12:30:24;;;;;;;3.75;2.30;;;29.90;46.20;;;;;;5149426;27;45562;-70
2023/08/11 12:32:52;;;;;;;4.80;2.20;;;30.00;46.20;;;;;;5149447;27;45270;-71
2023/08/11 12:35:19;;;;;;;4.00;2.20;;;30.10;45.90;;;;;;5149681;27;45345;-70
2023/08/11 12:37:46;;;;;;;3.83;2.10;;;30.10;45.90;;;;;;5148514;27;45514;-70
2023/08/11 12:40:13;;;;;;;2.50;1.83;;;30.20;45.10;;;;;;5149243;27;45315;-71
2023/08/11 12:42:40;;;;;;;4.20;2.30;;;30.20;44.60;;;;;;5149430;27;45330;-71
2023/08/11 12:45:08;;;;;;;6.50;2.08;;;30.20;44.50;;;;;;5149418;27;45465;-71
2023/08/11 12:47:34;;;;;;;2.42;2.13;;;30.20;44.60;;;;;;5149021;27;45418;-71